createdAt,value
2022-12-08T00:01:30.049Z,5.17
2022-12-08T00:04:01.485Z,4.87
2022-12-08T00:06:59.830Z,5.83
2022-12-08T00:09:39.084Z,4.83
2022-12-08T00:12:13.546Z,5.27
2022-12-08T00:14:46.255Z,5.30
2022-12-08T00:17:15.286Z,4.70
2022-12-08T00:19:46.995Z,6.20
2022-12-08T00:22:14.709Z,5.57
2022-12-08T00:24:45.602Z,5.80
2022-12-08T00:27:16.233Z,5.35
2022-12-08T00:29:45.954Z,4.70
2022-12-08T00:32:15.244Z,5.60
2022-12-08T00:34:42.085Z,5.93
2022-12-08T00:37:08.716Z,6.57
2022-12-08T00:39:35.424Z,5.47
2022-12-08T00:42:14.432Z,7.03
2022-12-08T00:44:42.600Z,7.27
2022-12-08T00:47:09.749Z,6.63
2022-12-08T00:49:38.898Z,6.47
2022-12-08T00:52:08.565Z,7.00
2022-12-08T00:54:37.539Z,6.80
2022-12-08T00:57:06.464Z,7.17
2022-12-08T00:59:33.211Z,7.53
2022-12-08T01:02:00.149Z,7.80
2022-12-08T01:04:26.848Z,7.07
2022-12-08T01:06:53.586Z,7.47
2022-12-08T01:09:20.313Z,7.97
2022-12-08T01:11:47.328Z,7.80
2022-12-08T01:14:14.244Z,7.87
2022-12-08T01:16:44.110Z,7.93
2022-12-08T01:19:15.793Z,7.07
2022-12-08T01:21:43.613Z,7.10
2022-12-08T01:24:15.182Z,8.40
2022-12-08T01:26:44.708Z,7.70
2022-12-08T01:29:12.234Z,6.83
2022-12-08T01:31:39.541Z,7.90
2022-12-08T01:34:06.659Z,9.47
2022-12-08T01:36:39.379Z,6.83
2022-12-08T01:39:10.605Z,8.63
2022-12-08T01:41:40.246Z,6.97
2022-12-08T01:44:08.119Z,7.20
2022-12-08T01:46:36.889Z,7.45
2022-12-08T01:49:17.779Z,7.47
2022-12-08T01:52:04.602Z,6.10
2022-12-08T01:54:35.968Z,6.77
2022-12-08T01:57:07.185Z,5.40
2022-12-08T01:59:41.367Z,6.23
2022-12-08T02:02:09.617Z,5.67
2022-12-08T02:04:38.973Z,5.87
2022-12-08T02:07:08.528Z,6.17
2022-12-08T02:09:40.878Z,5.77
2022-12-08T02:12:11.317Z,5.97
2022-12-08T02:14:38.076Z,5.87
2022-12-08T02:17:20.093Z,5.77
2022-12-08T02:20:00.539Z,5.47
2022-12-08T02:22:35.662Z,5.90
2022-12-08T02:25:26.568Z,5.88
2022-12-08T02:28:13.533Z,5.77
2022-12-08T02:31:20.334Z,5.20
2022-12-08T02:34:17.987Z,5.57
2022-12-08T02:36:54.276Z,5.97
2022-12-08T02:39:51.982Z,4.80
2022-12-08T02:42:26.184Z,5.57
2022-12-08T02:45:04.075Z,6.00
2022-12-08T02:47:32.541Z,4.93
2022-12-08T02:49:59.684Z,5.00
2022-12-08T02:52:26.312Z,6.40
2022-12-08T02:55:30.024Z,5.97
2022-12-08T02:58:40.171Z,5.20
2022-12-08T03:01:25.566Z,5.00
2022-12-08T03:04:16.272Z,4.73
2022-12-08T03:06:54.680Z,5.70
2022-12-08T03:09:27.056Z,5.67
2022-12-08T03:12:04.139Z,5.20
2022-12-08T03:14:34.681Z,5.27
2022-12-08T03:17:02.217Z,5.30
2022-12-08T03:19:35.527Z,4.77
2022-12-08T03:22:05.036Z,5.73
2022-12-08T03:24:41.766Z,5.30
2022-12-08T03:27:24.115Z,5.30
2022-12-08T03:29:56.388Z,5.30
2022-12-08T03:32:52.482Z,5.07
2022-12-08T03:35:25.916Z,5.30
2022-12-08T03:38:01.230Z,4.77
2022-12-08T03:40:27.903Z,5.10
2022-12-08T03:42:56.801Z,5.73
2022-12-08T03:45:23.690Z,6.30
2022-12-08T03:47:53.247Z,5.53
2022-12-08T03:50:19.951Z,5.30
2022-12-08T03:52:46.810Z,5.20
2022-12-08T03:55:15.556Z,4.93
2022-12-08T03:57:44.602Z,5.03
2022-12-08T04:00:15.364Z,5.90
2022-12-08T04:02:44.388Z,5.00
2022-12-08T04:05:11.077Z,6.37
2022-12-08T04:07:40.321Z,5.20
2022-12-08T04:10:09.763Z,5.60
2022-12-08T04:12:36.375Z,5.10
2022-12-08T04:15:03.198Z,5.23
2022-12-08T04:17:29.805Z,5.60
2022-12-08T04:19:58.632Z,6.00
2022-12-08T04:22:25.296Z,5.77
2022-12-08T04:24:52.164Z,6.20
2022-12-08T04:27:18.871Z,7.13
2022-12-08T04:29:45.586Z,6.63
2022-12-08T04:32:12.250Z,7.00
2022-12-08T04:34:38.904Z,6.53
2022-12-08T04:37:10.479Z,7.53
2022-12-08T04:39:37.143Z,6.82
2022-12-08T04:42:03.883Z,5.80
2022-12-08T04:44:30.556Z,5.73
2022-12-08T04:46:57.333Z,7.67
2022-12-08T04:49:26.214Z,5.63
2022-12-08T04:51:52.887Z,6.23
2022-12-08T04:54:19.538Z,6.30
2022-12-08T04:56:46.297Z,6.13
2022-12-08T04:59:12.944Z,5.37
2022-12-08T05:01:39.678Z,5.93
2022-12-08T05:04:06.415Z,5.50
2022-12-08T05:06:35.281Z,5.50
2022-12-08T05:09:01.938Z,5.70
2022-12-08T05:11:30.710Z,6.63
2022-12-08T05:13:57.385Z,5.23
2022-12-08T05:16:24.216Z,5.00
2022-12-08T05:18:53.192Z,5.43
2022-12-08T05:21:19.861Z,6.37
2022-12-08T05:23:51.055Z,5.20
2022-12-08T05:26:19.843Z,5.00
2022-12-08T05:28:49.156Z,5.43
2022-12-08T05:31:17.196Z,5.13
2022-12-08T05:33:45.234Z,5.30
2022-12-08T05:36:14.280Z,5.23
2022-12-08T05:38:41.418Z,5.40
2022-12-08T05:41:09.442Z,5.97
2022-12-08T05:43:38.767Z,4.90
2022-12-08T05:46:05.720Z,5.53
2022-12-08T05:48:35.752Z,5.73
2022-12-08T05:51:04.553Z,5.13
2022-12-08T05:53:31.242Z,5.13
2022-12-08T05:55:58.015Z,5.70
2022-12-08T05:58:24.729Z,4.30
2022-12-08T06:00:53.652Z,4.83
2022-12-08T06:03:22.491Z,5.23
2022-12-08T06:05:49.213Z,5.33
2022-12-08T06:08:16.217Z,4.87
2022-12-08T06:10:44.679Z,4.60
2022-12-08T06:13:11.862Z,4.83
2022-12-08T06:15:39.100Z,4.83
2022-12-08T06:18:06.648Z,4.47
2022-12-08T06:20:35.879Z,4.63
2022-12-08T06:23:03.431Z,4.87
2022-12-08T06:25:32.957Z,4.60
2022-12-08T06:27:59.565Z,4.90
2022-12-08T06:30:28.709Z,4.20
2022-12-08T06:32:57.904Z,3.97
2022-12-08T06:35:24.650Z,4.40
2022-12-08T06:37:51.777Z,4.10
2022-12-08T06:40:18.540Z,4.07
2022-12-08T06:42:47.664Z,4.37
2022-12-08T06:45:16.137Z,4.43
2022-12-08T06:47:43.272Z,4.83
2022-12-08T06:50:11.660Z,3.60
2022-12-08T06:52:47.293Z,4.20
2022-12-08T06:55:50.855Z,4.17
2022-12-08T06:58:09.539Z,3.87
2022-12-08T07:00:36.196Z,4.77
2022-12-08T07:03:02.977Z,4.23
2022-12-08T07:05:29.709Z,4.13
2022-12-08T07:07:56.464Z,4.45
2022-12-08T07:10:23.168Z,3.47
2022-12-08T07:12:52.366Z,3.97
2022-12-08T07:15:21.789Z,4.43
2022-12-08T07:17:48.762Z,4.00
2022-12-08T07:20:16.154Z,5.10
2022-12-08T07:22:49.981Z,4.90
2022-12-08T07:25:19.948Z,4.03
2022-12-08T07:27:51.143Z,4.57
2022-12-08T07:30:18.085Z,5.07
2022-12-08T07:32:45.266Z,4.07
2022-12-08T07:35:12.236Z,4.23
2022-12-08T07:37:39.437Z,4.67
2022-12-08T07:40:07.930Z,4.83
2022-12-08T07:42:37.075Z,3.87
2022-12-08T07:45:06.456Z,4.20
2022-12-08T07:47:35.416Z,6.22
2022-12-08T07:50:02.382Z,5.30
2022-12-08T07:52:29.337Z,7.50
2022-12-08T07:54:55.995Z,5.07
2022-12-08T07:57:22.619Z,5.13
2022-12-08T07:59:53.783Z,4.73
2022-12-08T08:02:25.707Z,4.63
2022-12-08T08:04:54.183Z,4.30
2022-12-08T08:07:23.265Z,4.67
2022-12-08T08:09:52.185Z,5.00
2022-12-08T08:12:34.208Z,4.80
2022-12-08T08:15:08.581Z,4.20
2022-12-08T08:17:39.033Z,4.63
2022-12-08T08:20:09.360Z,4.87
2022-12-08T08:22:36.948Z,4.60
2022-12-08T08:25:04.099Z,5.20
2022-12-08T08:27:31.214Z,5.07
2022-12-08T08:30:00.456Z,9.40
2022-12-08T08:32:27.164Z,6.83
2022-12-08T08:34:56.296Z,6.77
2022-12-08T08:37:27.969Z,8.03
2022-12-08T08:39:54.786Z,8.30
2022-12-08T08:42:21.534Z,9.07
2022-12-08T08:44:50.633Z,10.10
2022-12-08T08:47:21.677Z,8.73
2022-12-08T08:49:48.295Z,9.47
2022-12-08T08:52:17.376Z,8.93
2022-12-08T08:54:44.054Z,9.13
2022-12-08T08:57:10.749Z,9.40
2022-12-08T08:59:37.395Z,10.77
2022-12-08T09:02:06.761Z,8.97
2022-12-08T09:04:33.530Z,11.10
2022-12-08T09:07:00.333Z,9.67
2022-12-08T09:09:26.963Z,10.43
2022-12-08T09:11:55.741Z,10.93
2022-12-08T09:14:23.657Z,12.67
2022-12-08T09:16:52.573Z,13.70
2022-12-08T09:19:21.681Z,11.97
2022-12-08T09:21:48.513Z,11.60
2022-12-08T09:24:20.144Z,12.77
2022-12-08T09:26:47.210Z,11.30
2022-12-08T09:29:14.661Z,10.10
2022-12-08T09:31:44.082Z,12.10
2022-12-08T09:34:12.272Z,10.30
2022-12-08T09:36:41.862Z,10.57
2022-12-08T09:39:08.721Z,10.60
2022-12-08T09:42:02.713Z,9.83
2022-12-08T09:44:59.931Z,10.53
2022-12-08T09:47:43.791Z,8.07
2022-12-08T09:50:32.248Z,9.25
2022-12-08T09:53:23.576Z,8.23
2022-12-08T09:56:00.151Z,8.63
2022-12-08T09:58:26.796Z,9.10
2022-12-08T10:00:58.630Z,8.30
2022-12-08T10:03:28.456Z,7.60
2022-12-08T10:06:15.779Z,7.63
2022-12-08T10:08:58.359Z,8.43
2022-12-08T10:11:40.437Z,7.10
2022-12-08T10:14:24.619Z,9.03
2022-12-08T10:17:01.341Z,8.13
2022-12-08T10:19:31.815Z,8.20
2022-12-08T10:22:00.760Z,9.00
2022-12-08T10:24:43.699Z,8.53
2022-12-08T10:27:15.872Z,8.43
2022-12-08T10:29:42.579Z,7.38
2022-12-08T10:32:20.334Z,8.50
2022-12-08T10:35:03.849Z,6.20
2022-12-08T10:37:32.774Z,7.00
2022-12-08T10:40:06.375Z,7.47
2022-12-08T10:42:37.414Z,6.57
2022-12-08T10:45:24.628Z,7.00
2022-12-08T10:47:59.073Z,7.47
2022-12-08T10:50:36.254Z,6.70
2022-12-08T10:53:14.366Z,5.97
2022-12-08T10:55:45.488Z,7.00
2022-12-08T10:58:27.981Z,7.73
2022-12-08T11:01:02.079Z,7.83
2022-12-08T11:03:34.259Z,7.43
2022-12-08T11:06:11.005Z,6.50
2022-12-08T11:08:52.461Z,6.88
2022-12-08T11:11:24.453Z,8.17
2022-12-08T11:13:56.333Z,6.43
2022-12-08T11:16:23.563Z,6.10
2022-12-08T11:18:58.730Z,7.33
2022-12-08T11:21:39.975Z,6.07
2022-12-08T11:24:15.756Z,6.10
2022-12-08T11:27:01.079Z,6.27
2022-12-08T11:29:30.809Z,7.87
2022-12-08T11:32:02.367Z,5.33
2022-12-08T11:34:37.193Z,6.47
2022-12-08T11:37:12.804Z,5.87
2022-12-08T11:39:46.417Z,5.80
2022-12-08T11:42:17.878Z,5.33
2022-12-08T11:44:55.137Z,5.80
2022-12-08T11:47:43.913Z,6.05
2022-12-08T11:50:22.655Z,5.53
2022-12-08T11:52:51.521Z,5.67
2022-12-08T11:55:49.897Z,7.63
2022-12-08T11:58:45.658Z,4.83
2022-12-08T12:01:26.291Z,5.43
2022-12-08T12:04:12.118Z,6.60
2022-12-08T12:07:13.947Z,5.23
2022-12-08T12:10:04.955Z,4.80
2022-12-08T12:13:05.566Z,4.73
2022-12-08T12:15:50.137Z,5.20
2022-12-08T12:18:32.013Z,5.97
2022-12-08T12:21:22.611Z,4.50
2022-12-08T12:23:54.005Z,5.73
2022-12-08T12:26:27.618Z,4.53
2022-12-08T12:29:23.724Z,4.90
2022-12-08T12:31:55.599Z,5.40
2022-12-08T12:34:23.988Z,4.53
2022-12-08T12:36:56.072Z,6.77
2022-12-08T12:39:27.320Z,5.10
2022-12-08T12:42:00.412Z,5.07
2022-12-08T12:44:32.959Z,4.00
2022-12-08T12:47:01.273Z,5.00
2022-12-08T12:49:46.080Z,4.00
2022-12-08T12:52:15.762Z,5.00
2022-12-08T12:55:05.273Z,4.17
2022-12-08T12:57:39.843Z,6.00
2022-12-08T13:00:18.944Z,7.17
2022-12-08T13:02:50.847Z,7.17
2022-12-08T13:05:33.275Z,6.03
2022-12-08T13:08:03.573Z,5.63
2022-12-08T13:10:50.006Z,5.57
2022-12-08T13:13:18.977Z,6.47
2022-12-08T13:15:53.694Z,6.40
2022-12-08T13:18:34.396Z,6.00
2022-12-08T13:21:03.838Z,5.70
2022-12-08T13:23:36.491Z,6.63
2022-12-08T13:26:10.919Z,6.77
2022-12-08T13:28:59.301Z,5.40
2022-12-08T13:31:45.111Z,8.27
2022-12-08T13:34:41.610Z,7.37
2022-12-08T13:37:11.284Z,7.00
2022-12-08T13:39:40.842Z,6.32
2022-12-08T13:42:32.238Z,4.57
2022-12-08T13:45:33.969Z,6.07
2022-12-08T13:57:08.913Z,5.00
2022-12-08T13:59:44.461Z,5.20
2022-12-08T14:02:29.352Z,5.40
2022-12-08T14:07:43.702Z,6.70
2022-12-08T14:10:31.810Z,7.70
2022-12-08T14:13:05.313Z,6.77
2022-12-08T14:15:38.651Z,5.73
2022-12-08T14:18:06.946Z,6.00
2022-12-08T14:21:05.032Z,5.63
2022-12-08T14:23:26.219Z,6.93
2022-12-08T14:25:53.052Z,5.97
2022-12-08T14:28:20.025Z,5.77
2022-12-08T14:30:51.502Z,7.63
2022-12-08T14:33:22.882Z,5.60
2022-12-08T14:35:52.586Z,5.53
2022-12-08T14:38:23.991Z,6.40
2022-12-08T14:41:06.091Z,4.93
2022-12-08T14:43:35.852Z,5.37
2022-12-08T14:46:06.337Z,5.60
2022-12-08T14:48:36.422Z,5.17
2022-12-08T14:51:21.285Z,5.80
2022-12-08T14:53:58.466Z,6.47
2022-12-08T14:56:42.154Z,5.47
2022-12-08T14:59:20.881Z,6.40
2022-12-08T15:01:52.320Z,4.93
2022-12-08T15:04:24.324Z,5.77
2022-12-08T15:07:07.075Z,4.33
2022-12-08T15:09:43.711Z,7.95
2022-12-08T15:12:13.425Z,9.53
2022-12-08T15:15:04.486Z,7.67
2022-12-08T15:17:41.462Z,9.37
2022-12-08T15:20:56.888Z,8.03
2022-12-08T15:23:32.495Z,7.13
2022-12-08T15:26:00.127Z,6.73
2022-12-08T15:28:30.742Z,7.57
2022-12-08T15:30:58.511Z,6.53
2022-12-08T15:33:25.867Z,7.53
2022-12-08T15:35:53.614Z,8.80
2022-12-08T15:38:31.340Z,7.50
2022-12-08T15:40:58.849Z,6.63
2022-12-08T15:43:28.329Z,6.43
2022-12-08T15:46:00.255Z,7.83
2022-12-08T15:48:29.753Z,6.93
2022-12-08T15:50:57.208Z,7.87
2022-12-08T15:53:23.929Z,5.60
2022-12-08T15:56:25.911Z,5.77
2022-12-08T15:58:57.664Z,13.27
2022-12-08T16:01:27.593Z,5.73
2022-12-08T16:04:47.405Z,6.37
2022-12-08T16:09:42.585Z,7.73
2022-12-08T16:18:21.377Z,6.57
2022-12-08T16:23:43.160Z,6.80
2022-12-08T16:27:28.569Z,5.68
2022-12-08T16:29:16.407Z,7.30
2022-12-08T16:31:43.365Z,5.47
2022-12-08T16:34:14.771Z,9.10
2022-12-08T16:36:41.553Z,6.10
2022-12-08T16:39:12.734Z,5.80
2022-12-08T16:41:58.334Z,6.57
2022-12-08T16:44:27.258Z,5.03
2022-12-08T16:46:53.960Z,7.50
2022-12-08T16:49:20.673Z,5.85
2022-12-08T16:51:47.440Z,4.43
2022-12-08T16:54:16.321Z,5.23
2022-12-08T16:56:45.463Z,5.10
2022-12-08T16:59:12.223Z,4.50
2022-12-08T17:01:39.090Z,5.07
2022-12-08T17:06:54.857Z,4.47
2022-12-08T17:09:24.252Z,5.50
2022-12-08T17:11:51.346Z,4.93
2022-12-08T17:14:22.831Z,4.77
2022-12-08T17:16:49.655Z,4.07
2022-12-08T17:19:20.816Z,5.20
2022-12-08T17:21:47.515Z,4.20
2022-12-08T17:24:21.764Z,4.30
2022-12-08T17:26:51.683Z,5.10
2022-12-08T17:29:23.301Z,4.77
2022-12-08T17:31:53.065Z,4.00
2022-12-08T17:34:24.465Z,5.77
2022-12-08T17:36:51.698Z,3.83
2022-12-08T17:39:19.327Z,4.93
2022-12-08T17:41:46.839Z,4.88
2022-12-08T17:44:16.224Z,4.30
2022-12-08T17:46:52.068Z,4.67
2022-12-08T17:49:25.008Z,3.80
2022-12-08T17:51:58.390Z,3.50
2022-12-08T17:54:28.369Z,6.07
2022-12-08T17:56:58.555Z,4.77
2022-12-08T17:59:26.598Z,5.17
2022-12-08T18:01:56.529Z,4.70
2022-12-08T18:04:26.455Z,3.40
2022-12-08T18:06:53.216Z,4.80
2022-12-08T18:09:22.361Z,5.00
2022-12-08T18:11:49.115Z,5.20
2022-12-08T18:14:16.319Z,5.00
2022-12-08T18:16:47.675Z,3.50
2022-12-08T18:19:15.159Z,4.47
2022-12-08T18:21:42.365Z,3.70
2022-12-08T18:24:17.021Z,4.07
2022-12-08T18:26:43.716Z,4.27
2022-12-08T18:29:14.825Z,3.73
2022-12-08T18:31:43.618Z,5.50
2022-12-08T18:34:12.850Z,4.17
2022-12-08T18:36:39.614Z,3.47
2022-12-08T18:39:10.769Z,2.80
2022-12-08T18:41:39.980Z,5.53
2022-12-08T18:44:08.810Z,4.30
2022-12-08T18:46:37.632Z,3.77
2022-12-08T18:49:04.703Z,6.27
2022-12-08T18:51:31.378Z,4.80
2022-12-08T18:54:00.527Z,3.57
2022-12-08T18:56:34.408Z,5.40
2022-12-08T18:59:04.287Z,5.07
2022-12-08T19:01:36.233Z,4.00
2022-12-08T19:06:56.215Z,4.23
2022-12-08T19:09:22.977Z,3.03
2022-12-08T19:11:50.045Z,3.50
2022-12-08T19:14:22.690Z,3.40
2022-12-08T19:16:54.059Z,4.27
2022-12-08T19:19:21.459Z,3.60
2022-12-08T19:21:49.651Z,4.17
2022-12-08T19:24:19.103Z,4.07
2022-12-08T19:26:45.954Z,3.43
2022-12-08T19:29:13.179Z,4.30
2022-12-08T19:31:40.759Z,4.07
2022-12-08T19:34:10.967Z,3.87
2022-12-08T19:36:42.486Z,4.10
2022-12-08T19:39:37.470Z,5.17
2022-12-08T19:42:31.248Z,4.30
2022-12-08T19:45:01.309Z,4.40
2022-12-08T19:47:30.372Z,4.07
2022-12-08T19:50:17.821Z,4.90
2022-12-08T19:52:45.166Z,4.50
2022-12-08T19:55:17.067Z,5.10
2022-12-08T19:57:49.041Z,3.83
2022-12-08T20:00:16.675Z,5.23
2022-12-08T20:02:47.271Z,3.63
2022-12-08T20:05:14.509Z,4.00
2022-12-08T20:07:45.732Z,4.50
2022-12-08T20:10:21.064Z,4.23
2022-12-08T20:12:50.121Z,3.50
2022-12-08T20:15:19.375Z,5.07
2022-12-08T20:17:46.044Z,7.77
2022-12-08T20:20:13.935Z,5.20
2022-12-08T20:22:41.368Z,6.20
2022-12-08T20:25:12.971Z,5.83
2022-12-08T20:27:42.289Z,5.50
2022-12-08T20:30:15.041Z,5.37
2022-12-08T20:32:43.995Z,4.73
2022-12-08T20:35:10.888Z,4.73
2022-12-08T20:37:37.903Z,4.70
2022-12-08T20:40:06.075Z,6.27
2022-12-08T20:42:34.913Z,6.32
2022-12-08T20:45:06.375Z,4.53
2022-12-08T20:47:38.582Z,5.13
2022-12-08T20:50:08.887Z,4.40
2022-12-08T20:52:37.951Z,5.03
2022-12-08T20:55:13.009Z,6.97
2022-12-08T20:57:39.826Z,5.20
2022-12-08T21:00:10.379Z,6.00
2022-12-08T21:02:46.951Z,7.23
2022-12-08T21:05:18.250Z,5.33
2022-12-08T21:07:45.146Z,5.50
2022-12-08T21:10:14.434Z,5.00
2022-12-08T21:12:43.593Z,4.67
2022-12-08T21:15:13.196Z,4.97
2022-12-08T21:17:41.428Z,5.40
2022-12-08T21:20:08.669Z,4.83
2022-12-08T21:22:35.605Z,5.63
2022-12-08T21:25:02.349Z,4.83
2022-12-08T21:27:29.044Z,5.07
2022-12-08T21:29:55.856Z,4.80
2022-12-08T21:32:28.669Z,5.10
2022-12-08T21:34:59.288Z,4.23
2022-12-08T21:37:26.153Z,4.60
2022-12-08T21:39:52.859Z,4.63
2022-12-08T21:42:40.008Z,5.70
2022-12-08T21:45:09.946Z,4.37
2022-12-08T21:47:39.793Z,4.67
2022-12-08T21:50:07.940Z,4.97
2022-12-08T21:52:39.719Z,4.33
2022-12-08T21:55:07.544Z,4.47
2022-12-08T21:57:36.520Z,4.77
2022-12-08T22:00:04.279Z,4.70
2022-12-08T22:02:31.493Z,5.17
2022-12-08T22:04:58.371Z,5.90
2022-12-08T22:07:27.356Z,4.83
2022-12-08T22:09:54.231Z,5.13
2022-12-08T22:12:21.217Z,4.73
2022-12-08T22:14:51.054Z,6.03
2022-12-08T22:17:20.523Z,5.13
2022-12-08T22:19:47.568Z,4.80
2022-12-08T22:22:14.375Z,4.53
2022-12-08T22:24:43.277Z,7.90
2022-12-08T22:27:10.107Z,4.90
2022-12-08T22:29:36.828Z,4.60
2022-12-08T22:32:08.230Z,4.63
2022-12-08T22:34:39.237Z,5.73
2022-12-08T22:37:05.960Z,4.97
2022-12-08T22:39:32.762Z,4.50
2022-12-08T22:42:02.270Z,4.73
2022-12-08T22:44:29.297Z,4.80
2022-12-08T22:46:58.282Z,5.27
2022-12-08T22:49:25.619Z,4.20
2022-12-08T22:51:54.975Z,5.53
2022-12-08T22:54:21.619Z,4.97
2022-12-08T22:56:48.298Z,4.63
2022-12-08T22:59:15.132Z,4.07
2022-12-08T23:01:44.948Z,4.50
2022-12-08T23:04:17.671Z,4.17
2022-12-08T23:06:45.270Z,5.63
2022-12-08T23:09:12.788Z,5.63
2022-12-08T23:11:39.788Z,4.47
2022-12-08T23:14:06.594Z,6.03
2022-12-08T23:16:35.531Z,4.13
2022-12-08T23:19:05.013Z,4.90
2022-12-08T23:21:34.366Z,5.00
2022-12-08T23:24:02.012Z,4.77
2022-12-08T23:26:33.180Z,5.00
2022-12-08T23:29:00.740Z,5.63
2022-12-08T23:31:28.227Z,4.90
2022-12-08T23:33:57.795Z,4.60
2022-12-08T23:36:27.708Z,4.47
2022-12-08T23:38:56.992Z,6.13
2022-12-08T23:41:28.520Z,4.27
2022-12-08T23:43:55.425Z,4.50
2022-12-08T23:46:23.077Z,6.47
2022-12-08T23:48:53.287Z,4.90
2022-12-08T23:51:20.103Z,4.03
2022-12-08T23:53:47.448Z,4.27
2022-12-08T23:56:19.268Z,4.47
2022-12-08T23:58:46.105Z,4.03
